avis per tempestes more information blitzortung!


avis per Pluja more information rain snow radar


Visita la nostra xarxa de llocs de meteo:

Template documentation
and downloads

And another site



Thunderstorms From: 18-09-2018 09:00 Until: 19-09-2018 20:59 warning for: Thunderstorms Level: Yellow info button
Rain From: 18-09-2018 09:00 Until: 19-09-2018 20:59 warning for: Rain Level: Yellow info button

Pagina Historial Weather Underground text

Diari Resum May 29, 2017 Unitats:  Imperial    Mètric   Tant
« Previous Dia
SegĂźent Dia »
Diari Setmana Mensual Anual Personalitzada
  Maxima: Minima: Media:
Temperatura: TemperatureC °F 15.0 °F 22.9 °F
Punt de rosada: DewpointC °F 5.7 °F 8.4 °F
Humitat: Humidity % 29 % 40 %
Wind Speed: WindSpeedKMH mph 0.0 mph 6.7 mph
RĂ fegues de vent: WindSpeedGustKMH mph - -
Vent:- - SE
Pression baro: PressurehPa in 1012.8 in -
Precipitacions: 0.0 in    
Historical Graphs
 
 
Dades de taula per May 29, 2017
Temps Temperatura Punt de rosada Pression baro Vent Wind Speed RĂ fegues de vent Humitat Rainfall Rate (Hourly)
TemperatureC °F DewpointC °F PressurehPa in Calm     Humidity % HourlyPrecipMM in
00:00 15.1 °F 8.8 °F 1015.8 in WSW 3.2 mph 4.8 mph 66 % 0.0 in
00:03 19.5 °F 10.8 °F 1017.8 in Calm     57 % 0.0 in
00:08 19.4 °F 10.7 °F 1017.8 in Calm     57 % 0.0 in
00:10 15.1 °F 8.8 °F 1014.8 in WSW 1.6 mph 3.2 mph 66 % 0.0 in
00:20 15.2 °F 9.1 °F 1015.8 in Calm   3.2 mph 67 % 0.0 in
00:40 15.2 °F 9.1 °F 1015.8 in Calm   3.2 mph 67 % 0.0 in
00:50 15.3 °F 9.2 °F 1015.8 in Calm   1.6 mph 67 % 0.0 in
01:00 15.3 °F 9.2 °F 1015.8 in Calm     67 % 0.0 in
01:10 15.3 °F 9.2 °F 1015.8 in Calm     67 % 0.0 in
01:20 15.2 °F 9.1 °F 1015.8 in Calm     67 % 0.0 in
01:30 15.0 °F 9.1 °F 1015.8 in Calm     68 % 0.0 in
01:40 15.0 °F 9.1 °F 1015.8 in Calm     68 % 0.0 in
01:50 15.1 °F 9.2 °F 1015.8 in Calm     68 % 0.0 in
02:00 15.4 °F 9.5 °F 1015.8 in Calm     68 % 0.0 in
02:10 15.9 °F 10.0 °F 1015.8 in Calm     68 % 0.0 in
02:20 16.0 °F 9.9 °F 1015.8 in NE 1.6 mph 3.2 mph 67 % 0.0 in
02:30 16.5 °F 10.3 °F 1015.8 in NE 1.6 mph 1.6 mph 67 % 0.0 in
02:40 16.8 °F 10.4 °F 1015.8 in NE 1.6 mph 3.2 mph 66 % 0.0 in
02:50 16.7 °F 10.3 °F 1015.8 in Calm   1.6 mph 66 % 0.0 in
03:00 17.2 °F 10.3 °F 1015.8 in Calm   1.6 mph 64 % 0.0 in
03:10 17.2 °F 10.1 °F 1015.8 in SW 3.2 mph 3.2 mph 63 % 0.0 in
03:20 17.2 °F 9.8 °F 1015.8 in SW 1.6 mph 3.2 mph 62 % 0.0 in
03:30 17.3 °F 9.9 °F 1015.8 in SW 1.6 mph 3.2 mph 62 % 0.0 in
03:40 17.6 °F 10.2 °F 1015.8 in Calm   3.2 mph 62 % 0.0 in
03:50 18.2 °F 10.8 °F 1015.8 in SW 1.6 mph 3.2 mph 62 % 0.0 in
04:00 18.8 °F 11.1 °F 1015.8 in SW 3.2 mph 3.2 mph 61 % 0.0 in
04:15 20.4 °F 11.8 °F 1015.8 in Calm   3.2 mph 58 % 0.0 in
04:25 20.4 °F 11.3 °F 1015.8 in East 1.6 mph 3.2 mph 56 % 0.0 in
04:45 21.8 °F 11.8 °F 1014.8 in ENE 3.2 mph 6.4 mph 53 % 0.0 in
04:55 22.1 °F 11.5 °F 1016.8 in SE 3.2 mph 3.2 mph 51 % 0.0 in
05:05 22.3 °F 11.7 °F 1016.8 in SSW 1.6 mph 3.2 mph 51 % 0.0 in
05:15 22.5 °F 11.8 °F 1014.8 in SW 3.2 mph 4.8 mph 51 % 0.0 in
05:25 23.0 °F 12.0 °F 1015.8 in SW 1.6 mph 3.2 mph 50 % 0.0 in
10:34 23.1 °F 11.8 °F 1015.8 in WSW 1.9 mph 2.3 mph 49 % 0.0 in
10:39 23.5 °F 11.8 °F 1015.8 in SSE 1.9 mph 1.9 mph 48 % 0.0 in
10:40 23.5 °F 11.8 °F 1015.8 in SE 3.2 mph 3.2 mph 48 % 0.0 in
10:45 23.6 °F 11.6 °F 1015.8 in SE 5.3 mph 5.3 mph 47 % 0.0 in
10:50 23.2 °F 11.3 °F 1015.8 in ESE 5.6 mph 5.6 mph 47 % 0.0 in
10:55 23.5 °F 11.6 °F 1015.8 in NE 4.2 mph 4.2 mph 47 % 0.0 in
11:00 23.9 °F 11.9 °F 1015.8 in SW 3.7 mph 3.7 mph 47 % 0.0 in
11:05 24.6 °F 12.2 °F 1015.8 in South 2.6 mph   46 % 0.0 in
11:10 24.8 °F 12.1 °F 1015.8 in SE 4.2 mph 4.2 mph 45 % 0.0 in
11:15 24.4 °F 11.3 °F 1015.8 in South 5.6 mph 5.6 mph 44 % 0.0 in
11:20 24.4 °F 11.3 °F 1015.8 in SSE 5.6 mph 5.6 mph 44 % 0.0 in
11:25 24.7 °F 11.3 °F 1015.8 in ESE 5.6 mph 5.6 mph 43 % 0.0 in
11:30 25.3 °F 11.8 °F 1015.8 in SW 3.7 mph 3.7 mph 43 % 0.0 in
11:35 26.0 °F 12.4 °F 1015.8 in SSW 1.9 mph 1.9 mph 43 % 0.0 in
11:40 26.8 °F 12.8 °F 1015.8 in ESE 3.7 mph 3.7 mph 42 % 0.0 in
11:45 26.3 °F 12.0 °F 1015.8 in SE 3.7 mph 3.7 mph 41 % 0.0 in
11:50 25.8 °F 11.2 °F 1015.8 in NE 5.6 mph 5.6 mph 40 % 0.0 in
11:55 25.1 °F 10.2 °F 1015.8 in North 9.3 mph 9.3 mph 39 % 0.0 in
12:00 25.1 °F 10.2 °F 1015.8 in SE 6.4 mph 6.4 mph 39 % 0.0 in
12:05 25.3 °F 10.7 °F 1015.8 in East 7.4 mph 7.4 mph 40 % 0.0 in
12:10 25.9 °F 10.9 °F 1015.8 in South 4.2 mph 4.2 mph 39 % 0.0 in
12:15 25.7 °F 11.1 °F 1015.8 in ENE 6.4 mph 6.4 mph 40 % 0.0 in
12:20 25.7 °F 10.7 °F 1015.8 in SSE 1.9 mph 1.9 mph 39 % 0.0 in
12:25 26.0 °F 10.9 °F 1015.8 in ESE 4.2 mph 4.2 mph 39 % 0.0 in
12:30 25.9 °F 10.9 °F 1015.8 in SSE 7.4 mph 7.4 mph 39 % 0.0 in
12:35 25.9 °F 10.5 °F 1015.8 in NNE 6.9 mph 6.9 mph 38 % 0.0 in
12:40 26.1 °F 11.1 °F 1015.8 in ESE 6.1 mph 6.1 mph 39 % 0.0 in
12:45 26.2 °F 10.8 °F 1015.8 in East 3.7 mph 3.7 mph 38 % 0.0 in
12:50 26.6 °F 11.1 °F 1015.8 in South 7.4 mph 7.4 mph 38 % 0.0 in
12:55 26.4 °F 10.9 °F 1015.8 in East 10.0 mph 10.0 mph 38 % 0.0 in
13:00 26.4 °F 10.6 °F 1015.8 in ESE 15.8 mph 15.8 mph 37 % 0.0 in
13:05 25.8 °F 9.6 °F 1015.8 in ESE 13.0 mph 13.0 mph 36 % 0.0 in
13:10 26.2 °F 9.9 °F 1014.8 in South 7.4 mph 7.4 mph 36 % 0.0 in
13:15 26.4 °F 10.1 °F 1014.8 in ENE 13.0 mph 13.0 mph 36 % 0.0 in
13:20 26.5 °F 10.2 °F 1014.8 in SW 14.8 mph 14.8 mph 36 % 0.0 in
13:25 26.7 °F 9.6 °F 1014.8 in ESE 14.8 mph 14.8 mph 34 % 0.0 in
13:30 26.6 °F 9.9 °F 1014.8 in WSW 11.1 mph 11.1 mph 35 % 0.0 in
13:35 26.4 °F 9.7 °F 1014.8 in SE 9.5 mph 9.5 mph 35 % 0.0 in
13:40 26.7 °F 9.9 °F 1014.8 in SSE 9.3 mph 9.3 mph 35 % 0.0 in
13:45 26.4 °F 9.3 °F 1014.8 in ESE 16.7 mph 16.7 mph 34 % 0.0 in
13:50 26.3 °F 9.2 °F 1014.8 in NNE 13.0 mph 13.0 mph 34 % 0.0 in
13:55 26.4 °F 8.8 °F 1014.8 in ESE 11.1 mph 11.1 mph 33 % 0.0 in
14:00 26.4 °F 8.8 °F 1014.8 in ESE 9.3 mph 10.0 mph 33 % 0.0 in
14:05 26.5 °F 9.3 °F 1014.8 in ESE 14.8 mph 14.8 mph 34 % 0.0 in
14:10 26.5 °F 9.3 °F 1014.8 in ENE 9.5 mph 9.5 mph 34 % 0.0 in
14:15 26.4 °F 8.4 °F 1014.8 in East 20.4 mph 20.4 mph 32 % 0.0 in
14:20 26.5 °F 8.4 °F 1014.8 in East 13.0 mph 13.0 mph 32 % 0.0 in
14:25 26.5 °F 8.4 °F 1014.8 in ENE 13.0 mph 13.0 mph 32 % 0.0 in
14:30 26.4 °F 7.9 °F 1014.8 in ESE 14.8 mph 14.8 mph 31 % 0.0 in
14:35 26.7 °F 8.2 °F 1014.8 in NE 10.3 mph 10.3 mph 31 % 0.0 in
14:40 26.9 °F 8.3 °F 1013.8 in ESE 9.3 mph 9.3 mph 31 % 0.0 in
14:45 26.5 °F 8.0 °F 1013.8 in ESE 11.3 mph 17.7 mph 31 % 0.0 in
14:50 26.5 °F 8.0 °F 1013.8 in ESE 11.3 mph 16.1 mph 31 % 0.0 in
14:55 26.8 °F 8.2 °F 1013.8 in East 8.0 mph 19.3 mph 31 % 0.0 in
15:00 27.0 °F 7.9 °F 1013.8 in ESE 12.9 mph 19.3 mph 30 % 0.0 in
15:05 27.2 °F 8.1 °F 1013.8 in SE 4.8 mph 22.5 mph 30 % 0.0 in
15:10 26.6 °F 7.6 °F 1013.8 in SE 20.4 mph 20.4 mph 30 % 0.0 in
15:15 26.5 °F 7.5 °F 1013.8 in East 16.7 mph 16.7 mph 30 % 0.0 in
15:20 26.7 °F 7.7 °F 1013.8 in ENE 16.7 mph 16.7 mph 30 % 0.0 in
15:25 26.6 °F 7.6 °F 1012.8 in SSE 18.5 mph 18.5 mph 30 % 0.0 in
15:30 26.7 °F 7.7 °F 1012.8 in East 20.6 mph 20.6 mph 30 % 0.0 in
15:35 26.4 °F 7.4 °F 1012.8 in SE 13.0 mph 13.0 mph 30 % 0.0 in
15:40 26.3 °F 7.3 °F 1013.8 in East 14.8 mph 14.8 mph 30 % 0.0 in
15:45 26.4 °F 7.4 °F 1013.8 in ESE 14.8 mph 14.8 mph 30 % 0.0 in
15:50 26.5 °F 7.5 °F 1013.8 in ESE 20.4 mph 20.4 mph 30 % 0.0 in
15:55 26.5 °F 7.0 °F 1012.8 in ESE 13.0 mph 13.0 mph 29 % 0.0 in
16:00 26.6 °F 7.1 °F 1012.8 in ENE 20.4 mph 20.4 mph 29 % 0.0 in
16:05 26.7 °F 7.7 °F 1012.8 in ENE 11.4 mph 11.4 mph 30 % 0.0 in
16:10 26.4 °F 7.4 °F 1013.8 in East 20.4 mph 20.4 mph 30 % 0.0 in
16:15 26.5 °F 7.5 °F 1013.8 in ESE 16.7 mph 16.7 mph 30 % 0.0 in
16:20 26.6 °F 7.6 °F 1013.8 in ESE 13.0 mph 13.0 mph 30 % 0.0 in
16:25 27.1 °F 8.0 °F 1013.8 in SSW 9.3 mph 9.3 mph 30 % 0.0 in
16:35 26.6 °F 7.6 °F 1012.8 in East 7.4 mph 7.4 mph 30 % 0.0 in
16:40 26.5 °F 7.0 °F 1012.8 in WSW 13.0 mph 13.0 mph 29 % 0.0 in
16:45 26.7 °F 7.7 °F 1012.8 in ENE 9.5 mph 9.5 mph 30 % 0.0 in
16:50 26.0 °F 7.1 °F 1013.8 in NE 18.5 mph 18.5 mph 30 % 0.0 in
16:55 25.8 °F 6.9 °F 1013.8 in East 18.5 mph 18.5 mph 30 % 0.0 in
17:00 25.4 °F 6.6 °F 1013.8 in ESE 17.5 mph 17.5 mph 30 % 0.0 in
17:05 25.5 °F 6.7 °F 1012.8 in ESE 9.3 mph 9.3 mph 30 % 0.0 in
17:10 25.2 °F 6.4 °F 1012.8 in East 16.7 mph 16.7 mph 30 % 0.0 in
17:15 25.1 °F 6.8 °F 1012.8 in ESE 9.3 mph 9.3 mph 31 % 0.0 in
17:20 24.8 °F 7.0 °F 1012.8 in ESE 20.4 mph 20.4 mph 32 % 0.0 in
17:25 24.8 °F 7.0 °F 1012.8 in SE 15.6 mph 15.6 mph 32 % 0.0 in
17:30 24.6 °F 6.8 °F 1012.8 in SE 14.8 mph 14.8 mph 32 % 0.0 in
17:35 24.6 °F 6.8 °F 1012.8 in ENE 16.7 mph 16.7 mph 32 % 0.0 in
17:40 24.4 °F 6.6 °F 1012.8 in ESE 15.1 mph 15.1 mph 32 % 0.0 in
17:45 24.3 °F 6.6 °F 1012.8 in ESE 14.8 mph 14.8 mph 32 % 0.0 in
17:50 24.0 °F 5.8 °F 1012.8 in NE 16.7 mph 16.7 mph 31 % 0.0 in
17:55 24.0 °F 5.8 °F 1012.8 in ESE 14.8 mph 14.8 mph 31 % 0.0 in
18:00 23.9 °F 5.7 °F 1012.8 in ENE 13.0 mph 13.0 mph 31 % 0.0 in
18:05 23.9 °F 6.2 °F 1012.8 in SE 9.3 mph 9.3 mph 32 % 0.0 in
18:10 23.8 °F 6.1 °F 1012.8 in SW 7.4 mph 7.4 mph 32 % 0.0 in
18:15 23.8 °F 6.1 °F 1012.8 in NE 5.6 mph 6.1 mph 32 % 0.0 in
18:20 23.7 °F 6.0 °F 1012.8 in ESE 14.8 mph 14.8 mph 32 % 0.0 in
18:25 23.6 °F 5.9 °F 1012.8 in NNE 11.1 mph 11.1 mph 32 % 0.0 in
18:30 23.7 °F 6.4 °F 1012.8 in ESE 8.7 mph 8.7 mph 33 % 0.0 in
18:35 23.5 °F 6.3 °F 1012.8 in East 9.3 mph 9.3 mph 33 % 0.0 in
18:40 23.5 °F 6.7 °F 1012.8 in ESE 9.3 mph 9.3 mph 34 % 0.0 in
18:45 23.5 °F 6.7 °F 1012.8 in ESE 10.3 mph 10.3 mph 34 % 0.0 in
18:50 23.4 °F 7.1 °F 1012.8 in SSE 9.3 mph 9.3 mph 35 % 0.0 in
18:55 23.4 °F 7.1 °F 1012.8 in ENE 11.1 mph 11.1 mph 35 % 0.0 in
19:00 23.4 °F 7.1 °F 1012.8 in East 11.1 mph 11.1 mph 35 % 0.0 in
19:05 23.3 °F 6.9 °F 1012.8 in ESE 11.1 mph 11.1 mph 35 % 0.0 in
19:10 23.3 °F 6.9 °F 1012.8 in ESE 9.3 mph 9.3 mph 35 % 0.0 in
19:15 23.4 °F 7.1 °F 1012.8 in South 3.7 mph 3.7 mph 35 % 0.0 in
19:20 23.5 °F 7.6 °F 1013.8 in WSW 3.7 mph 3.7 mph 36 % 0.0 in
19:25 23.6 °F 7.7 °F 1013.8 in SW 5.0 mph   36 % 0.0 in
19:30 23.7 °F 7.3 °F 1013.8 in SW 3.7 mph 3.7 mph 35 % 0.0 in
19:35 23.7 °F 7.3 °F 1013.8 in SW 3.7 mph 3.7 mph 35 % 0.0 in
19:40 23.7 °F 7.3 °F 1013.8 in SSE 1.9 mph   35 % 0.0 in
19:45 23.7 °F 7.3 °F 1013.8 in SW 1.9 mph 1.9 mph 35 % 0.0 in
19:50 23.5 °F 6.7 °F 1013.8 in WSW 3.9 mph 3.9 mph 34 % 0.0 in
19:55 23.4 °F 6.6 °F 1013.8 in SW 3.7 mph 3.7 mph 34 % 0.0 in
20:00 23.3 °F 6.6 °F 1013.8 in SSW 3.7 mph 3.7 mph 34 % 0.0 in
20:05 23.3 °F 6.6 °F 1013.8 in SW 3.7 mph 3.7 mph 34 % 0.0 in
20:10 23.3 °F 6.6 °F 1013.8 in SW 3.7 mph   34 % 0.0 in
20:15 23.2 °F 6.4 °F 1013.8 in WSW 3.2 mph 3.2 mph 34 % 0.0 in
20:20 23.2 °F 6.4 °F 1013.8 in Calm     34 % 0.0 in
20:25 23.1 °F 6.4 °F 1013.8 in Calm     34 % 0.0 in
20:30 23.0 °F 5.8 °F 1013.8 in SW 3.7 mph 3.7 mph 33 % 0.0 in
20:35 22.9 °F 6.2 °F 1013.8 in SW 1.9 mph   34 % 0.0 in
20:40 22.9 °F 6.2 °F 1012.8 in SW 1.9 mph   34 % 0.0 in
20:45 22.8 °F 6.1 °F 1012.8 in Calm     34 % 0.0 in
20:50 22.7 °F 6.0 °F 1012.8 in WNW 1.9 mph   34 % 0.0 in
20:55 22.6 °F 5.9 °F 1012.8 in NE 3.2 mph 3.2 mph 34 % 0.0 in
21:00 22.5 °F 5.8 °F 1012.8 in NE 3.7 mph 3.7 mph 34 % 0.0 in
21:05 22.5 °F 6.3 °F 1012.8 in East 5.6 mph 5.6 mph 35 % 0.0 in
21:10 22.3 °F 6.5 °F 1012.8 in ENE 5.6 mph 5.8 mph 36 % 0.0 in
21:15 22.2 °F 6.8 °F 1012.8 in NNE 6.9 mph 6.9 mph 37 % 0.0 in
21:20 22.1 °F 7.1 °F 1012.8 in SW 5.6 mph 5.6 mph 38 % 0.0 in
21:25 22.0 °F 7.0 °F 1012.8 in WSW 3.7 mph   38 % 0.0 in
21:30 21.8 °F 7.2 °F 1012.8 in SSE 1.9 mph   39 % 0.0 in
21:35 21.7 °F 7.1 °F 1013.8 in South 3.7 mph 3.9 mph 39 % 0.0 in
21:40 21.7 °F 7.1 °F 1013.8 in South 1.9 mph 1.9 mph 39 % 0.0 in
21:45 21.6 °F 7.1 °F 1013.8 in NE 3.9 mph   39 % 0.0 in
21:50 21.5 °F 7.3 °F 1013.8 in ENE 3.7 mph 3.7 mph 40 % 0.0 in
21:55 21.4 °F 7.2 °F 1013.8 in ENE 1.9 mph   40 % 0.0 in
22:00 21.4 °F 7.2 °F 1013.8 in NNE 3.7 mph 3.7 mph 40 % 0.0 in
22:05 21.4 °F 7.6 °F 1013.8 in East 3.7 mph 3.7 mph 41 % 0.0 in
22:10 21.4 °F 7.6 °F 1013.8 in ENE 1.4 mph   41 % 0.0 in
22:15 21.2 °F 7.4 °F 1013.8 in SW 1.9 mph 1.9 mph 41 % 0.0 in
22:20 21.0 °F 7.2 °F 1012.8 in Calm     41 % 0.0 in
22:25 20.8 °F 7.4 °F 1012.8 in Calm     42 % 0.0 in
22:30 20.7 °F 7.3 °F 1012.8 in Calm     42 % 0.0 in
22:35 20.7 °F 7.3 °F 1012.8 in South 3.7 mph 3.7 mph 42 % 0.0 in
22:40 20.7 °F 6.9 °F 1012.8 in SSE 2.3 mph 2.3 mph 41 % 0.0 in
22:45 20.7 °F 6.9 °F 1012.8 in South 1.9 mph 1.9 mph 41 % 0.0 in
22:50 20.6 °F 7.2 °F 1012.8 in Calm     42 % 0.0 in
22:55 20.5 °F 7.2 °F 1012.8 in Calm     42 % 0.0 in
23:00 20.5 °F 7.2 °F 1012.8 in East 1.9 mph 2.3 mph 42 % 0.0 in
23:05 20.4 °F 7.1 °F 1013.8 in North 1.9 mph 1.9 mph 42 % 0.0 in
23:10 20.4 °F 7.1 °F 1013.8 in Calm     42 % 0.0 in
23:15 20.4 °F 7.1 °F 1013.8 in NW 1.9 mph 1.9 mph 42 % 0.0 in
23:20 20.3 °F 7.3 °F 1013.8 in Calm     43 % 0.0 in
23:25 20.3 °F 7.3 °F 1013.8 in NE 3.7 mph 3.7 mph 43 % 0.0 in
23:30 20.2 °F 7.2 °F 1013.8 in NNE 2.3 mph 2.3 mph 43 % 0.0 in
23:35 20.2 °F 7.6 °F 1013.8 in NNE 1.9 mph   44 % 0.0 in
23:40 20.1 °F 7.4 °F 1013.8 in NE 3.9 mph 3.9 mph 44 % 0.0 in
23:45 20.1 °F 7.4 °F 1013.8 in NNE 3.7 mph   44 % 0.0 in
23:50 20.1 °F 7.4 °F 1014.8 in NE 2.6 mph 2.6 mph 44 % 0.0 in
23:55 20.0 °F 7.4 °F 1014.8 in NNE 3.9 mph 3.9 mph 44 % 0.0 in
Meteo Sesrovires
Elogis d' Weather Underground - 1.5 mb

Guio original per  Jim McMurry - jmcmurry@mwt.net Adaptat per a la plantilla per  Wim van der Kuil - Leuven-Template.eu

Trobareu la nostra informacio del temps tambe a:

Weather Underground

AWEKAS